Marion Dufresne — FNIN — position and weather

sailwx.info

Track history (hours):
 
Tides and Currents Weather Stations Pressure Air Temp Water Temp Dewpoint Dewpoint Depression Visibility Wind Speed Wind Dir Waves Ship Positions

Oceanographic research ship Marion Dufresne (France)

Detailed information on ship capabilities available from University of Delaware's Ocean Information Center and ARCUS's ALIAS (Arctic Logistics Information and Support) project.

Last reported at 2016-Aug-07 17:03 UTC. Time now 2016-Aug-30 09:05 UTC.
Position S 20°14' E 057°05'.
Warning: this ship's position is 22 days out of date.

Length 120 m; beam 21 m.

Type: Ship. MMSI: 227235000.

Date/timePositionNaut miles runAvg speedWind from/ knotsBaromVisibWave heightAir tempDewpointWater temp
2016-Aug-07 17:03S 20°14' E 057°05'511.0
2016-Aug-07 16:33S 20°13' E 057°11'1111.0
2016-Aug-07 15:33S 20°09' E 057°22'7 7.3
2016-Aug-07 14:33S 20°09' E 057°30'0 0.0
2016-Aug-07 13:31S 20°09' E 057°30'0 0.0
2016-Aug-07 12:31S 20°09' E 057°30'0 0.0
2016-Aug-07 11:30S 20°09' E 057°30'0 0.0
2016-Aug-07 10:33S 20°09' E 057°30'0 0.0
2016-Aug-07 09:33S 20°09' E 057°30'0 0.0
2016-Aug-07 08:32S 20°09' E 057°30'0 0.0
2016-Aug-07 07:32S 20°09' E 057°30'0 0.0
2016-Aug-07 06:31S 20°09' E 057°30'0 0.0
2016-Aug-07 04:33S 20°09' E 057°30'1 0.6
2016-Aug-07 03:33S 20°09' E 057°29'5 5.1
2016-Aug-07 02:34S 20°06' E 057°25'1211.9
2016-Aug-07 01:33S 19°55' E 057°30'1211.7
2016-Aug-07 00:33S 19°46' E 057°38'1212.3
2016-Aug-06 23:33S 19°39' E 057°49'1212.2
2016-Aug-06 22:33S 19°32' E 057°59'1212.3
2016-Aug-06 21:33S 19°25' E 058°10'1212.3
2016-Aug-06 20:33S 19°18' E 058°21'1312.2
2016-Aug-06 19:32S 19°11' E 058°32'1212.3
2016-Aug-06 18:33S 19°04' E 058°43'  
Track history (hours):
 
Tides and Currents Weather Stations Pressure Air Temp Water Temp Dewpoint Dewpoint Depression Visibility Wind Speed Wind Dir Waves Ship Positions

Oceanographic research ship Marion Dufresne (France)

Detailed information on ship capabilities available from University of Delaware's Ocean Information Center and ARCUS's ALIAS (Arctic Logistics Information and Support) project.

Last reported at 2016-Aug-07 17:03 UTC. Time now 2016-Aug-30 09:05 UTC.
Position S 20°14' E 057°05'.
Warning: this ship's position is 22 days out of date.

Length 120 m; beam 21 m.

Type: Ship. MMSI: 227235000.

Date/timePositionNaut miles runAvg speedWind from/ knotsBaromVisibWave heightAir tempDewpointWater temp
2016-Aug-07 17:03S 20°14' E 057°05'511.0
2016-Aug-07 16:33S 20°13' E 057°11'1111.0
2016-Aug-07 15:33S 20°09' E 057°22'7 7.3
2016-Aug-07 14:33S 20°09' E 057°30'0 0.0
2016-Aug-07 13:31S 20°09' E 057°30'0 0.0
2016-Aug-07 12:31S 20°09' E 057°30'0 0.0
2016-Aug-07 11:30S 20°09' E 057°30'0 0.0
2016-Aug-07 10:33S 20°09' E 057°30'0 0.0
2016-Aug-07 09:33S 20°09' E 057°30'0 0.0
2016-Aug-07 08:32S 20°09' E 057°30'0 0.0
2016-Aug-07 07:32S 20°09' E 057°30'0 0.0
2016-Aug-07 06:31S 20°09' E 057°30'0 0.0
2016-Aug-07 04:33S 20°09' E 057°30'1 0.6
2016-Aug-07 03:33S 20°09' E 057°29'5 5.1
2016-Aug-07 02:34S 20°06' E 057°25'1211.9
2016-Aug-07 01:33S 19°55' E 057°30'1211.7
2016-Aug-07 00:33S 19°46' E 057°38'1212.3
2016-Aug-06 23:33S 19°39' E 057°49'1212.2
2016-Aug-06 22:33S 19°32' E 057°59'1212.3
2016-Aug-06 21:33S 19°25' E 058°10'1212.3
2016-Aug-06 20:33S 19°18' E 058°21'1312.2
2016-Aug-06 19:32S 19°11' E 058°32'1212.3
2016-Aug-06 18:33S 19°04' E 058°43'  

Dump ship's entire track history